createdAt,value
2019-03-31T00:25:35.349Z,16.60
2019-03-31T00:28:05.691Z,13.60
2019-03-31T00:30:36.061Z,15.97
2019-03-31T00:33:06.748Z,17.10
2019-03-31T00:35:37.079Z,14.33
2019-03-31T00:38:07.395Z,14.93
2019-03-31T00:40:37.725Z,13.93
2019-03-31T00:43:08.104Z,13.67
2019-03-31T00:45:39.012Z,18.27
2019-03-31T00:48:09.222Z,37.40
2019-03-31T00:50:39.492Z,33.70
2019-03-31T00:53:09.888Z,27.50
2019-03-31T00:55:40.199Z,27.73
2019-03-31T00:58:10.521Z,30.30
2019-03-31T01:00:59.893Z,25.87
2019-03-31T01:03:32.209Z,26.50
2019-03-31T01:06:02.658Z,22.53
2019-03-31T01:08:35.092Z,24.60
2019-03-31T01:11:17.208Z,19.77
2019-03-31T01:13:48.105Z,16.93
2019-03-31T01:16:18.807Z,21.40
2019-03-31T01:18:49.596Z,61.63
2019-03-31T01:21:19.846Z,67.90
2019-03-31T02:24:26.903Z,45.67
2019-03-31T02:26:57.247Z,35.40
2019-03-31T02:29:27.718Z,43.07
2019-03-31T02:31:58.201Z,35.77
2019-03-31T02:34:28.469Z,32.90
2019-03-31T02:36:58.601Z,18.90
2019-03-31T02:39:29.062Z,19.23
2019-03-31T02:41:59.223Z,18.67
2019-03-31T02:44:29.568Z,17.63
2019-03-31T02:46:59.930Z,20.17
2019-03-31T02:49:30.259Z,17.50
2019-03-31T02:52:00.661Z,16.13
2019-03-31T02:54:31.206Z,16.87
2019-03-31T02:57:01.913Z,17.90
2019-03-31T02:59:35.222Z,16.90
2019-03-31T03:02:05.645Z,23.83
2019-03-31T03:04:39.344Z,26.07
2019-03-31T03:07:10.547Z,35.20
2019-03-31T03:09:42.269Z,52.63
2019-03-31T03:12:13.933Z,89.80
2019-03-31T03:14:45.185Z,19.70
2019-03-31T03:17:15.614Z,20.03
2019-03-31T03:19:45.997Z,23.73
2019-03-31T03:22:16.453Z,18.80
2019-03-31T04:25:32.921Z,23.67
2019-03-31T04:28:03.114Z,60.90
2019-03-31T04:30:33.563Z,36.67
2019-03-31T04:33:03.933Z,30.70
2019-03-31T04:35:34.119Z,20.90
2019-03-31T04:38:04.524Z,19.77
2019-03-31T04:40:34.785Z,19.30
2019-03-31T04:43:05.187Z,17.57
2019-03-31T04:45:35.629Z,15.20
2019-03-31T04:48:06.107Z,18.63
2019-03-31T04:50:36.476Z,14.63
2019-03-31T04:53:07.014Z,17.53
2019-03-31T04:55:37.403Z,13.50
2019-03-31T04:58:07.748Z,18.93
2019-03-31T05:00:38.979Z,18.70
2019-03-31T05:03:09.329Z,18.33
2019-03-31T05:05:39.636Z,17.03
2019-03-31T05:08:09.988Z,17.43
2019-03-31T05:10:40.391Z,13.20
2019-03-31T05:13:10.605Z,19.00
2019-03-31T05:15:40.869Z,15.57
2019-03-31T05:18:11.252Z,15.27
2019-03-31T05:20:41.620Z,13.37
2019-03-31T05:23:12.128Z,19.10
2019-03-31T05:29:17.842Z,15.83
2019-03-31T05:31:48.079Z,10.23
2019-03-31T05:34:19.642Z,14.40
2019-03-31T05:36:50.247Z,12.57
2019-03-31T05:39:20.800Z,13.60
2019-03-31T05:41:51.141Z,13.73
2019-03-31T05:44:21.628Z,14.70
2019-03-31T05:46:51.850Z,14.13
2019-03-31T05:49:22.225Z,17.63
2019-03-31T05:51:52.450Z,15.70
2019-03-31T05:54:22.634Z,14.43
2019-03-31T05:56:53.002Z,15.10
2019-03-31T05:59:23.503Z,15.97
2019-03-31T06:01:54.874Z,14.87
2019-03-31T06:04:33.178Z,10.57
2019-03-31T06:06:57.166Z,9.77
2019-03-31T06:09:27.562Z,11.87
2019-03-31T06:11:57.861Z,12.67
2019-03-31T06:14:28.154Z,12.27
2019-03-31T06:16:58.483Z,10.80
2019-03-31T06:19:28.761Z,10.47
2019-03-31T06:21:59.020Z,11.67
2019-03-31T06:24:29.405Z,9.63
2019-03-31T06:27:00.016Z,9.50
2019-03-31T06:29:30.247Z,11.53
2019-03-31T06:32:00.542Z,9.63
2019-03-31T06:34:30.867Z,11.47
2019-03-31T06:37:02.457Z,8.87
2019-03-31T06:39:34.389Z,10.57
2019-03-31T06:42:04.734Z,10.23
2019-03-31T06:44:37.967Z,12.67
2019-03-31T06:47:07.059Z,12.87
2019-03-31T06:49:37.329Z,11.80
2019-03-31T06:52:07.813Z,15.97
2019-03-31T06:54:38.086Z,13.37
2019-03-31T06:57:08.573Z,8.83
2019-03-31T06:59:38.936Z,7.97
2019-03-31T07:02:09.325Z,8.77
2019-03-31T07:04:40.816Z,8.93
2019-03-31T07:07:11.251Z,9.83
2019-03-31T07:09:41.566Z,11.17
2019-03-31T07:12:11.958Z,8.53
2019-03-31T07:14:42.350Z,8.03
2019-03-31T07:17:12.716Z,7.93
2019-03-31T07:19:43.043Z,10.07
2019-03-31T07:22:13.315Z,8.23
2019-03-31T07:46:39.209Z,7.03
2019-03-31T07:49:09.580Z,8.10
2019-03-31T07:51:39.852Z,7.17
2019-03-31T07:54:10.403Z,8.47
2019-03-31T07:56:40.868Z,8.10
2019-03-31T07:59:11.055Z,8.60
2019-03-31T08:01:41.533Z,9.50
2019-03-31T08:04:13.847Z,9.33
2019-03-31T08:06:44.161Z,7.67
2019-03-31T08:09:14.389Z,6.57
2019-03-31T08:11:44.751Z,9.43
2019-03-31T08:14:15.116Z,8.17
2019-03-31T08:16:45.499Z,8.87
2019-03-31T08:19:16.930Z,6.93
2019-03-31T08:21:47.534Z,9.10
2019-03-31T08:24:17.777Z,8.30
2019-03-31T08:26:48.269Z,5.73
2019-03-31T08:29:18.465Z,6.27
2019-03-31T08:31:48.822Z,8.03
2019-03-31T08:34:19.191Z,4.40
2019-03-31T08:36:49.404Z,7.97
2019-03-31T08:39:19.911Z,6.77
2019-03-31T08:41:51.299Z,7.80
2019-03-31T08:44:21.610Z,9.63
2019-03-31T08:46:52.003Z,6.57
2019-03-31T08:49:22.404Z,8.30
2019-03-31T08:51:52.759Z,5.33
2019-03-31T08:54:22.983Z,7.13
2019-03-31T08:56:53.296Z,5.73
2019-03-31T08:59:23.621Z,8.73
2019-03-31T09:01:53.977Z,9.63
2019-03-31T09:04:24.610Z,8.57
2019-03-31T09:06:55.171Z,7.53
2019-03-31T09:09:25.490Z,6.47
2019-03-31T09:11:55.932Z,7.70
2019-03-31T09:14:26.146Z,7.83
2019-03-31T09:16:56.587Z,8.53
2019-03-31T09:19:26.798Z,9.30
2019-03-31T09:21:57.189Z,6.53
2019-03-31T10:26:00.045Z,8.03
2019-03-31T10:28:30.227Z,6.67
2019-03-31T10:31:00.696Z,14.37
2019-03-31T10:33:30.788Z,10.47
2019-03-31T10:36:01.150Z,8.43
2019-03-31T10:38:31.345Z,24.23
2019-03-31T10:41:01.831Z,10.80
2019-03-31T10:43:32.214Z,9.37
2019-03-31T10:46:02.893Z,19.47
2019-03-31T10:48:33.224Z,16.80
2019-03-31T10:51:03.715Z,22.10
2019-03-31T10:53:33.920Z,28.43
2019-03-31T10:56:04.364Z,22.57
2019-03-31T10:58:34.541Z,14.10
2019-03-31T11:01:05.067Z,10.40
2019-03-31T11:03:35.448Z,15.77
2019-03-31T11:06:06.973Z,34.33
2019-03-31T11:08:37.264Z,27.53
2019-03-31T11:11:08.834Z,20.63
2019-03-31T11:13:39.251Z,23.87
2019-03-31T11:16:09.480Z,14.63
2019-03-31T11:18:39.851Z,16.40
2019-03-31T11:21:20.231Z,9.17
2019-03-31T11:44:27.703Z,7.50
2019-03-31T11:46:57.185Z,8.47
2019-03-31T11:49:27.336Z,4.63
2019-03-31T11:51:57.876Z,5.90
2019-03-31T11:54:28.357Z,6.50
2019-03-31T11:56:58.687Z,7.90
2019-03-31T11:59:28.896Z,7.93
2019-03-31T12:01:59.029Z,7.73
2019-03-31T12:04:29.360Z,12.40
2019-03-31T12:06:59.730Z,8.17
2019-03-31T12:09:30.016Z,10.83
2019-03-31T12:12:00.273Z,9.33
2019-03-31T12:14:30.718Z,4.77
2019-03-31T12:17:01.089Z,5.17
2019-03-31T12:19:31.311Z,8.77
2019-03-31T12:22:01.593Z,7.23
2019-03-31T12:24:32.071Z,7.07
2019-03-31T12:27:02.321Z,9.53
2019-03-31T12:29:32.627Z,8.40
2019-03-31T12:32:03.311Z,9.57
2019-03-31T12:34:33.674Z,7.77
2019-03-31T12:37:04.109Z,6.17
2019-03-31T12:39:34.455Z,7.37
2019-03-31T12:42:04.711Z,5.17
2019-03-31T12:44:35.055Z,6.23
2019-03-31T12:47:05.351Z,5.83
2019-03-31T12:49:35.726Z,6.07
2019-03-31T12:52:05.955Z,6.10
2019-03-31T12:54:36.342Z,5.90
2019-03-31T12:57:06.600Z,6.10
2019-03-31T12:59:36.960Z,4.20
2019-03-31T13:02:07.787Z,6.57
2019-03-31T13:04:38.036Z,4.17
2019-03-31T13:07:08.339Z,4.43
2019-03-31T13:09:38.707Z,3.90
2019-03-31T13:12:08.929Z,7.33
2019-03-31T13:14:39.312Z,3.87
2019-03-31T13:17:09.590Z,4.57
2019-03-31T13:19:39.770Z,4.40
2019-03-31T13:22:10.031Z,5.33
2019-03-31T14:24:59.498Z,5.40
2019-03-31T14:27:29.838Z,7.23
2019-03-31T14:30:00.402Z,5.33
2019-03-31T14:32:31.044Z,4.47
2019-03-31T14:35:01.383Z,12.03
2019-03-31T14:37:31.863Z,6.77
2019-03-31T14:40:03.300Z,12.33
2019-03-31T14:42:33.578Z,10.57
2019-03-31T14:45:04.075Z,8.57
2019-03-31T14:47:34.448Z,8.30
2019-03-31T14:50:05.168Z,16.03
2019-03-31T14:52:36.796Z,12.53
2019-03-31T14:55:07.124Z,7.60
2019-03-31T14:57:38.681Z,8.73
2019-03-31T15:00:14.925Z,5.50
2019-03-31T15:02:41.561Z,4.47
2019-03-31T15:05:13.314Z,4.33
2019-03-31T15:07:43.669Z,5.60
2019-03-31T15:10:14.024Z,3.50
2019-03-31T15:12:44.360Z,3.53
2019-03-31T15:15:14.579Z,4.30
2019-03-31T15:17:44.903Z,3.83
2019-03-31T15:20:15.711Z,4.67
2019-03-31T15:22:46.032Z,4.03
2019-03-31T16:23:58.440Z,8.83
2019-03-31T16:26:28.240Z,10.47
2019-03-31T16:28:58.010Z,11.00
2019-03-31T16:31:27.801Z,11.57
2019-03-31T16:33:57.677Z,11.30
2019-03-31T16:36:27.689Z,14.43
2019-03-31T16:38:57.446Z,18.80
2019-03-31T16:41:27.233Z,17.20
2019-03-31T16:43:57.106Z,15.87
2019-03-31T16:46:26.903Z,16.50
2019-03-31T16:48:56.758Z,11.80
2019-03-31T16:51:26.639Z,16.13
2019-03-31T16:53:56.773Z,10.93
2019-03-31T16:56:26.805Z,11.43
2019-03-31T16:58:56.704Z,12.50
2019-03-31T17:01:26.506Z,14.27
2019-03-31T17:03:56.171Z,15.07
2019-03-31T17:06:25.946Z,13.80
2019-03-31T17:08:55.835Z,14.50
2019-03-31T17:11:25.513Z,16.77
2019-03-31T17:13:55.284Z,16.43
2019-03-31T17:16:25.199Z,13.87
2019-03-31T17:18:55.038Z,12.83
2019-03-31T17:21:24.813Z,13.87
2019-03-31T18:25:17.233Z,17.27
2019-03-31T18:27:47.216Z,18.13
2019-03-31T18:30:17.455Z,16.60
2019-03-31T18:32:47.218Z,16.00
2019-03-31T18:35:17.197Z,17.07
2019-03-31T18:37:46.797Z,17.33
2019-03-31T18:40:16.867Z,19.67
2019-03-31T18:42:46.906Z,17.13
2019-03-31T18:45:17.907Z,20.83
2019-03-31T18:47:47.787Z,22.33
2019-03-31T18:50:17.494Z,19.80
2019-03-31T18:52:47.166Z,21.17
2019-03-31T18:55:34.643Z,25.63
2019-03-31T18:58:23.448Z,21.60
2019-03-31T19:01:16.380Z,23.53
2019-03-31T19:04:05.151Z,23.13
2019-03-31T19:06:56.713Z,21.20
2019-03-31T19:09:45.316Z,20.40
2019-03-31T19:12:21.864Z,19.13
2019-03-31T19:15:22.528Z,18.47
2019-03-31T19:18:09.683Z,18.10
2019-03-31T19:21:16.633Z,17.27
2019-03-31T20:26:05.253Z,15.07
2019-03-31T20:28:52.966Z,11.43
2019-03-31T20:31:47.758Z,13.13
2019-03-31T20:34:35.153Z,11.97
2019-03-31T20:37:23.877Z,9.47
2019-03-31T20:40:19.109Z,9.20
2019-03-31T20:43:05.652Z,10.03
2019-03-31T20:45:35.612Z,10.27
2019-03-31T20:48:06.957Z,6.13
2019-03-31T20:50:36.974Z,7.93
2019-03-31T20:53:06.999Z,6.90
2019-03-31T20:55:36.942Z,8.33
2019-03-31T20:58:06.693Z,8.67
2019-03-31T21:00:36.683Z,10.07
2019-03-31T21:03:06.433Z,8.70
2019-03-31T21:05:36.046Z,7.77
2019-03-31T21:08:06.004Z,10.30
2019-03-31T21:10:36.521Z,9.13
2019-03-31T21:13:06.308Z,8.20
2019-03-31T21:15:36.073Z,45.80
2019-03-31T21:18:05.858Z,21.70
2019-03-31T21:20:35.653Z,38.43
2019-03-31T21:23:05.453Z,51.80
2019-03-31T22:12:34.128Z,18.77
2019-03-31T22:15:04.070Z,17.93
2019-03-31T22:17:33.827Z,19.70
2019-03-31T22:20:04.950Z,21.70
2019-03-31T22:22:34.745Z,16.60
2019-03-31T22:25:05.145Z,20.90
2019-03-31T22:27:34.847Z,18.67
2019-03-31T22:30:04.963Z,18.10
2019-03-31T22:32:34.916Z,16.27
2019-03-31T22:35:04.926Z,15.50
2019-03-31T22:37:34.846Z,13.77
2019-03-31T22:40:04.837Z,14.23
2019-03-31T22:42:34.640Z,20.47
2019-03-31T22:45:04.627Z,19.43
2019-03-31T22:47:34.471Z,19.23
2019-03-31T22:50:04.292Z,16.53
2019-03-31T22:52:34.172Z,21.53
2019-03-31T22:55:04.025Z,29.50
2019-03-31T22:57:33.960Z,29.40
2019-03-31T23:00:04.016Z,47.80
2019-03-31T23:02:33.793Z,30.90
2019-03-31T23:05:20.235Z,22.57
2019-03-31T23:07:56.678Z,23.30
2019-03-31T23:10:26.374Z,28.07
2019-03-31T23:12:56.268Z,32.47
2019-03-31T23:15:26.029Z,27.07
2019-03-31T23:17:55.696Z,15.17
2019-03-31T23:20:25.508Z,24.20
2019-03-31T23:22:55.259Z,17.90
